createdAt,value
2019-04-14T00:00:55.361Z,0.00
2019-04-14T00:01:54.996Z,0.00
2019-04-14T00:02:55.469Z,0.00
2019-04-14T00:03:54.986Z,0.00
2019-04-14T00:04:55.121Z,0.00
2019-04-14T00:05:56.018Z,0.00
2019-04-14T00:06:54.998Z,0.00
2019-04-14T00:07:55.998Z,0.00
2019-04-14T00:08:54.947Z,0.00
2019-04-14T00:10:02.947Z,0.00
2019-04-14T00:10:55.116Z,0.00
2019-04-14T00:11:54.959Z,0.00
2019-04-14T00:12:55.664Z,0.00
2019-04-14T00:13:54.927Z,0.00
2019-04-14T00:14:55.476Z,0.00
2019-04-14T00:15:55.074Z,0.00
2019-04-14T00:16:55.334Z,0.00
2019-04-14T00:17:54.850Z,0.00
2019-04-14T00:18:55.516Z,0.00
2019-04-14T00:19:54.868Z,0.00
2019-04-14T00:20:55.547Z,0.00
2019-04-14T00:21:54.846Z,0.00
2019-04-14T00:22:55.525Z,0.00
2019-04-14T00:23:54.767Z,0.00
2019-04-14T00:24:55.359Z,0.00
2019-04-14T00:25:54.741Z,0.00
2019-04-14T00:26:55.234Z,0.00
2019-04-14T00:27:54.788Z,0.00
2019-04-14T00:28:55.600Z,0.00
2019-04-14T00:29:54.706Z,0.00
2019-04-14T00:30:55.568Z,0.00
2019-04-14T00:31:55.415Z,0.00
2019-04-14T00:32:55.303Z,0.00
2019-04-14T00:33:54.666Z,0.00
2019-04-14T00:34:55.007Z,0.00
2019-04-14T00:35:55.843Z,0.00
2019-04-14T00:36:54.626Z,0.00
2019-04-14T00:37:55.532Z,0.00
2019-04-14T00:38:54.667Z,0.00
2019-04-14T00:39:55.455Z,0.00
2019-04-14T00:40:54.587Z,0.00
2019-04-14T00:41:58.554Z,0.00
2019-04-14T00:42:55.949Z,0.00
2019-04-14T00:43:54.936Z,0.00
2019-04-14T00:44:54.543Z,0.00
2019-04-14T00:45:57.682Z,0.00
2019-04-14T00:46:54.524Z,0.00
2019-04-14T00:48:01.078Z,0.00
2019-04-14T00:48:56.025Z,0.00
2019-04-14T00:49:55.187Z,0.00
2019-04-14T00:50:54.494Z,0.00
2019-04-14T00:51:54.971Z,0.00
2019-04-14T00:52:54.726Z,0.00
2019-04-14T00:53:55.656Z,0.00
2019-04-14T00:54:54.495Z,0.00
2019-04-14T00:55:55.356Z,0.00
2019-04-14T00:56:54.425Z,0.00
2019-04-14T00:57:55.116Z,0.00
2019-04-14T00:58:54.454Z,0.00
2019-04-14T00:59:55.228Z,0.00
2019-04-14T01:00:54.372Z,0.00
2019-04-14T01:01:54.800Z,0.00
2019-04-14T01:02:54.344Z,0.00
2019-04-14T01:03:54.795Z,0.00
2019-04-14T01:04:55.452Z,0.00
2019-04-14T01:05:54.739Z,0.00
2019-04-14T01:06:55.440Z,0.00
2019-04-14T01:07:54.440Z,0.00
2019-04-14T01:08:55.319Z,0.00
2019-04-14T01:09:55.341Z,0.00
2019-04-14T01:10:54.298Z,0.00
2019-04-14T01:11:55.221Z,0.00
2019-04-14T01:12:54.324Z,0.00
2019-04-14T01:13:55.050Z,0.00
2019-04-14T01:14:54.223Z,0.00
2019-04-14T01:16:00.549Z,0.00
2019-04-14T01:16:55.869Z,0.00
2019-04-14T01:17:54.952Z,0.00
2019-04-14T01:18:54.204Z,0.00
2019-04-14T01:19:54.893Z,0.00
2019-04-14T01:20:54.216Z,0.00
2019-04-14T01:21:54.597Z,0.00
2019-04-14T01:22:55.219Z,0.00
2019-04-14T01:23:54.533Z,0.00
2019-04-14T01:24:55.278Z,0.00
2019-04-14T01:25:54.254Z,0.00
2019-04-14T01:26:55.009Z,0.00
2019-04-14T01:27:54.082Z,0.00
2019-04-14T01:28:54.771Z,0.00
2019-04-14T01:29:54.071Z,0.00
2019-04-14T01:30:54.483Z,0.00
2019-04-14T01:31:54.042Z,0.00
2019-04-14T01:32:54.385Z,0.00
2019-04-14T01:33:54.035Z,0.00
2019-04-14T01:34:55.267Z,0.00
2019-04-14T01:35:55.216Z,0.00
2019-04-14T01:36:54.121Z,0.00
2019-04-14T01:37:55.009Z,0.00
2019-04-14T01:38:53.972Z,0.00
2019-04-14T01:39:54.565Z,0.00
2019-04-14T01:40:55.182Z,0.00
2019-04-14T01:41:54.399Z,0.00
2019-04-14T01:42:54.814Z,0.00
2019-04-14T01:43:53.999Z,0.00
2019-04-14T01:44:54.689Z,0.00
2019-04-14T01:46:07.230Z,0.00
2019-04-14T01:46:54.934Z,0.00
2019-04-14T01:47:53.881Z,0.00
2019-04-14T01:48:54.089Z,0.00
2019-04-14T01:49:55.089Z,0.00
2019-04-14T01:50:53.871Z,0.00
2019-04-14T01:51:54.857Z,0.00
2019-04-14T01:52:54.427Z,0.00
2019-04-14T01:53:53.811Z,0.00
2019-04-14T01:54:53.849Z,0.00
2019-04-14T01:55:54.824Z,0.00
2019-04-14T01:56:53.830Z,0.00
2019-04-14T01:57:54.583Z,0.00
2019-04-14T01:58:53.770Z,0.00
2019-04-14T01:59:54.674Z,0.00
2019-04-14T02:00:53.744Z,0.00
2019-04-14T02:01:54.276Z,0.00
2019-04-14T02:02:53.781Z,0.00
2019-04-14T02:03:54.192Z,0.00
2019-04-14T02:04:53.701Z,0.00
2019-04-14T02:05:53.970Z,0.00
2019-04-14T02:06:53.670Z,0.00
2019-04-14T02:07:53.821Z,0.00
2019-04-14T02:08:54.677Z,0.00
2019-04-14T02:09:53.690Z,0.00
2019-04-14T02:10:54.398Z,0.00
2019-04-14T02:11:53.609Z,0.00
2019-04-14T02:12:54.189Z,0.00
2019-04-14T02:13:53.590Z,0.00
2019-04-14T02:14:54.066Z,0.00
2019-04-14T02:15:54.739Z,0.00
2019-04-14T02:16:57.327Z,0.00
2019-04-14T02:17:54.750Z,0.00
2019-04-14T02:18:55.309Z,0.00
2019-04-14T02:19:54.609Z,0.00
2019-04-14T02:20:53.654Z,0.00
2019-04-14T02:21:54.101Z,0.00
2019-04-14T02:22:53.508Z,0.00
2019-04-14T02:23:54.012Z,0.00
2019-04-14T02:24:54.802Z,0.00
2019-04-14T02:25:53.656Z,0.00
2019-04-14T02:26:54.669Z,0.00
2019-04-14T02:27:53.704Z,0.00
2019-04-14T02:28:53.429Z,0.00
2019-04-14T02:29:53.848Z,0.00
2019-04-14T02:31:08.297Z,0.00
2019-04-14T02:32:28.506Z,0.00
2019-04-14T02:33:26.356Z,0.00
2019-04-14T02:34:27.679Z,0.00
2019-04-14T02:35:20.609Z,0.00
2019-04-14T02:37:40.288Z,0.00
2019-04-14T02:38:40.903Z,0.00
2019-04-14T02:39:24.771Z,0.00
2019-04-14T02:41:44.254Z,0.00
2019-04-14T02:42:30.940Z,0.00
2019-04-14T02:43:23.903Z,0.00
2019-04-14T02:44:24.162Z,0.00
2019-04-14T02:46:20.100Z,0.00
2019-04-14T02:49:22.089Z,0.00
2019-04-14T02:50:17.226Z,0.00
2019-04-14T02:51:19.376Z,0.00
2019-04-14T02:52:22.302Z,0.00
2019-04-14T02:54:22.809Z,0.00
2019-04-14T02:55:18.960Z,0.00
2019-04-14T02:56:21.502Z,0.00
2019-04-14T02:59:41.562Z,0.00
2019-04-14T03:00:24.129Z,0.00
2019-04-14T03:01:26.104Z,0.00
2019-04-14T03:03:24.025Z,0.00
2019-04-14T03:04:19.482Z,0.00
2019-04-14T03:05:24.491Z,0.00
2019-04-14T03:06:18.136Z,0.00
2019-04-14T03:07:23.275Z,0.00
2019-04-14T03:09:31.515Z,0.00
2019-04-14T03:11:20.766Z,0.00
2019-04-14T03:12:25.146Z,0.00
2019-04-14T03:14:26.991Z,0.00
2019-04-14T03:15:35.332Z,0.00
2019-04-14T03:16:15.801Z,0.00
2019-04-14T03:19:29.801Z,0.00
2019-04-14T03:21:21.345Z,0.00
2019-04-14T03:22:32.863Z,0.00
2019-04-14T03:23:23.706Z,0.00
2019-04-14T03:24:24.195Z,0.00
2019-04-14T03:25:05.745Z,0.00
2019-04-14T03:26:18.209Z,0.00
2019-04-14T03:27:28.485Z,0.00
2019-04-14T03:28:19.506Z,0.00
2019-04-14T03:29:21.377Z,0.00
2019-04-14T03:30:51.721Z,0.00
2019-04-14T03:31:37.505Z,0.00
2019-04-14T03:32:35.997Z,0.00
2019-04-14T03:33:52.485Z,0.00
2019-04-14T03:34:34.107Z,0.00
2019-04-14T03:35:51.965Z,0.00
2019-04-14T03:37:37.738Z,0.00
2019-04-14T03:38:24.604Z,0.00
2019-04-14T03:39:23.495Z,0.00
2019-04-14T03:40:21.639Z,0.00
2019-04-14T03:42:29.294Z,0.00
2019-04-14T03:43:25.294Z,0.00
2019-04-14T03:44:16.789Z,0.00
2019-04-14T03:45:28.222Z,0.00
2019-04-14T03:47:21.329Z,0.00
2019-04-14T03:49:26.918Z,0.00
2019-04-14T03:52:23.975Z,0.00
2019-04-14T03:53:21.994Z,0.00
2019-04-14T03:54:16.648Z,0.00
2019-04-14T03:55:09.381Z,0.00
2019-04-14T03:55:58.772Z,0.00
2019-04-14T03:56:53.783Z,0.00
2019-04-14T03:57:52.492Z,0.00
2019-04-14T03:58:53.192Z,0.00
2019-04-14T03:59:52.472Z,0.00
2019-04-14T04:00:53.322Z,0.00
2019-04-14T04:01:52.472Z,0.00
2019-04-14T04:02:53.326Z,0.00
2019-04-14T04:03:52.482Z,0.00
2019-04-14T04:04:53.387Z,0.00
2019-04-14T04:05:52.414Z,0.00
2019-04-14T04:06:53.177Z,0.00
2019-04-14T04:07:52.394Z,0.00
2019-04-14T04:08:53.118Z,0.00
2019-04-14T04:09:52.361Z,0.00
2019-04-14T04:10:53.275Z,0.00
2019-04-14T04:11:52.361Z,0.00
2019-04-14T04:12:53.235Z,0.00
2019-04-14T04:13:52.400Z,0.00
2019-04-14T04:14:53.139Z,0.00
2019-04-14T04:15:52.325Z,0.00
2019-04-14T04:16:52.915Z,0.00
2019-04-14T04:17:52.270Z,0.00
2019-04-14T04:19:00.862Z,0.00
2019-04-14T04:19:53.490Z,0.00
2019-04-14T04:20:52.497Z,0.00
2019-04-14T04:21:53.036Z,0.00
2019-04-14T04:22:52.327Z,0.00
2019-04-14T04:23:53.304Z,5.62
2019-04-14T04:24:52.208Z,5.62
2019-04-14T04:25:52.930Z,5.62
2019-04-14T04:26:52.198Z,5.62
2019-04-14T04:27:52.648Z,5.62
2019-04-14T04:28:52.219Z,5.62
2019-04-14T04:29:52.687Z,5.62
2019-04-14T04:30:52.140Z,11.25
2019-04-14T04:31:52.630Z,11.25
2019-04-14T04:32:52.121Z,11.25
2019-04-14T04:33:52.307Z,11.25
2019-04-14T04:34:53.344Z,16.88
2019-04-14T04:35:52.239Z,16.88
2019-04-14T04:36:53.052Z,16.88
2019-04-14T04:37:52.132Z,16.88
2019-04-14T04:38:52.953Z,22.50
2019-04-14T04:39:52.068Z,22.50
2019-04-14T04:40:52.885Z,22.50
2019-04-14T04:41:52.076Z,28.12
2019-04-14T04:42:52.667Z,28.12
2019-04-14T04:43:51.998Z,28.12
2019-04-14T04:44:53.148Z,33.75
2019-04-14T04:45:51.987Z,33.75
2019-04-14T04:46:52.713Z,39.38
2019-04-14T04:47:52.008Z,39.38
2019-04-14T04:49:03.147Z,39.38
2019-04-14T04:49:53.355Z,45.00
2019-04-14T04:50:52.000Z,45.00
2019-04-14T04:51:52.949Z,50.62
2019-04-14T04:52:51.968Z,50.62
2019-04-14T04:53:52.773Z,50.62
2019-04-14T04:54:51.886Z,56.25
2019-04-14T04:55:52.472Z,56.25
2019-04-14T04:56:51.900Z,56.25
2019-04-14T04:57:52.407Z,61.88
2019-04-14T04:58:52.310Z,61.88
2019-04-14T04:59:51.835Z,61.88
2019-04-14T05:00:54.177Z,67.50
2019-04-14T05:01:51.815Z,67.50
2019-04-14T05:02:52.714Z,73.12
2019-04-14T05:03:51.852Z,73.12
2019-04-14T05:04:52.643Z,78.75
2019-04-14T05:05:51.776Z,78.75
2019-04-14T05:06:52.563Z,84.38
2019-04-14T05:07:51.809Z,84.38
2019-04-14T05:08:52.295Z,90.00
2019-04-14T05:09:51.723Z,90.00
2019-04-14T05:10:52.463Z,95.62
2019-04-14T05:11:53.579Z,95.62
2019-04-14T05:12:52.225Z,101.25
2019-04-14T05:13:51.677Z,101.25
2019-04-14T05:14:52.370Z,101.25
2019-04-14T05:15:51.665Z,106.88
2019-04-14T05:16:52.809Z,106.88
2019-04-14T05:17:51.773Z,112.50
2019-04-14T05:18:51.625Z,112.50
2019-04-14T05:19:51.928Z,118.12
2019-04-14T05:20:51.619Z,123.75
2019-04-14T05:21:51.775Z,123.75
2019-04-14T05:22:52.842Z,123.75
2019-04-14T05:23:51.710Z,129.38
2019-04-14T05:24:52.793Z,129.38
2019-04-14T05:25:51.778Z,135.00
2019-04-14T05:26:52.670Z,135.00
2019-04-14T05:27:51.665Z,140.62
2019-04-14T05:28:52.675Z,140.62
2019-04-14T05:29:51.622Z,146.25
2019-04-14T05:30:52.551Z,151.88
2019-04-14T05:31:51.486Z,151.88
2019-04-14T05:32:52.236Z,157.50
2019-04-14T05:33:51.466Z,157.50
2019-04-14T05:34:52.181Z,157.50
2019-04-14T05:35:51.505Z,163.12
2019-04-14T05:36:52.131Z,163.12
2019-04-14T05:37:51.485Z,168.75
2019-04-14T05:38:51.785Z,174.38
2019-04-14T05:39:52.596Z,174.38
2019-04-14T05:40:51.835Z,174.38
2019-04-14T05:42:00.355Z,174.38
2019-04-14T05:42:52.385Z,174.38
2019-04-14T05:43:55.666Z,174.38
2019-04-14T05:44:53.599Z,180.00
2019-04-14T05:45:52.299Z,185.62
2019-04-14T05:46:51.446Z,185.62
2019-04-14T05:47:52.267Z,191.25
2019-04-14T05:48:51.483Z,196.88
2019-04-14T05:49:53.462Z,196.88
2019-04-14T05:50:51.362Z,208.12
2019-04-14T05:51:52.352Z,213.75
2019-04-14T05:52:51.524Z,219.38
2019-04-14T05:53:52.282Z,225.00
2019-04-14T05:54:51.532Z,230.62
2019-04-14T05:55:52.421Z,236.25
2019-04-14T05:56:51.633Z,241.88
2019-04-14T05:57:52.378Z,247.50
2019-04-14T05:58:51.513Z,258.75
2019-04-14T05:59:51.192Z,264.38
2019-04-14T06:00:51.798Z,275.62
2019-04-14T06:01:51.176Z,281.25
2019-04-14T06:02:51.172Z,292.50
2019-04-14T06:03:51.778Z,298.12
2019-04-14T06:04:51.557Z,286.88
2019-04-14T06:05:51.135Z,281.25
2019-04-14T06:06:51.114Z,286.88
2019-04-14T06:07:51.161Z,303.75
2019-04-14T06:08:51.152Z,331.88
2019-04-14T06:09:51.082Z,337.50
2019-04-14T06:10:58.188Z,343.12
2019-04-14T06:11:51.124Z,343.12
2019-04-14T06:12:51.064Z,348.75
2019-04-14T06:13:51.103Z,354.38
2019-04-14T06:14:51.047Z,360.00
2019-04-14T06:15:51.023Z,371.25
2019-04-14T06:16:51.023Z,376.88
2019-04-14T06:17:50.993Z,382.50
2019-04-14T06:18:51.043Z,393.75
2019-04-14T06:19:50.986Z,405.00
2019-04-14T06:20:50.973Z,444.38
2019-04-14T06:21:50.967Z,500.62
2019-04-14T06:22:50.943Z,545.62
2019-04-14T06:23:50.993Z,568.12
2019-04-14T06:24:50.946Z,590.62
2019-04-14T06:25:50.936Z,596.25
2019-04-14T06:26:50.912Z,613.12
2019-04-14T06:27:50.920Z,624.38
2019-04-14T06:28:50.892Z,635.62
2019-04-14T06:29:50.874Z,646.88
2019-04-14T06:30:50.863Z,646.88
2019-04-14T06:31:50.853Z,646.88
2019-04-14T06:32:50.851Z,646.88
2019-04-14T06:33:50.896Z,658.12
2019-04-14T06:34:50.822Z,675.00
2019-04-14T06:35:50.816Z,680.62
2019-04-14T06:36:50.802Z,686.25
2019-04-14T06:37:50.792Z,686.25
2019-04-14T06:38:50.802Z,703.12
2019-04-14T06:39:50.770Z,703.12
2019-04-14T06:40:50.761Z,708.75
2019-04-14T06:41:50.752Z,703.12
2019-04-14T06:42:50.742Z,703.12
2019-04-14T06:43:50.733Z,742.50
2019-04-14T06:44:50.771Z,770.62
2019-04-14T06:45:50.702Z,765.00
2019-04-14T06:46:50.692Z,736.88
2019-04-14T06:47:50.684Z,714.38
2019-04-14T06:48:50.662Z,742.50
2019-04-14T06:49:50.724Z,781.88
2019-04-14T06:50:50.654Z,798.75
2019-04-14T06:51:50.631Z,866.25
2019-04-14T06:52:50.636Z,866.25
2019-04-14T06:53:50.625Z,860.62
2019-04-14T06:54:50.662Z,956.25
2019-04-14T06:55:50.592Z,1108.12
2019-04-14T06:56:50.593Z,1080.00
2019-04-14T06:57:50.572Z,900.00
2019-04-14T06:58:50.562Z,905.62
2019-04-14T06:59:50.601Z,967.50
2019-04-14T07:00:50.541Z,1018.12
2019-04-14T07:01:50.532Z,1040.62
2019-04-14T07:02:50.512Z,1040.62
2019-04-14T07:03:50.502Z,1023.75
2019-04-14T07:04:50.552Z,928.12
2019-04-14T07:05:50.482Z,916.88
2019-04-14T07:06:51.494Z,871.88
2019-04-14T07:07:56.781Z,877.50
2019-04-14T07:08:51.455Z,888.75
2019-04-14T07:09:50.521Z,928.12
2019-04-14T07:10:50.448Z,1063.12
2019-04-14T07:11:50.436Z,1192.50
2019-04-14T07:12:50.416Z,1276.88
2019-04-14T07:13:50.402Z,1288.12
2019-04-14T07:14:50.400Z,1299.38
2019-04-14T07:15:50.454Z,1372.50
2019-04-14T07:16:51.475Z,1327.50
2019-04-14T07:17:50.352Z,1186.88
2019-04-14T07:18:50.354Z,1170.00
2019-04-14T07:20:01.273Z,1164.38
2019-04-14T07:20:51.381Z,1395.00
2019-04-14T07:21:50.331Z,1985.62
2019-04-14T07:22:50.302Z,1591.88
2019-04-14T07:23:50.302Z,1456.88
2019-04-14T07:24:50.281Z,1305.00
2019-04-14T07:25:50.285Z,1288.12
2019-04-14T07:26:50.315Z,1299.38
2019-04-14T07:27:50.266Z,1327.50
2019-04-14T07:28:56.665Z,1276.88
2019-04-14T07:29:51.223Z,1293.75
2019-04-14T07:30:50.244Z,1282.50
2019-04-14T07:31:50.224Z,1288.12
2019-04-14T07:32:50.275Z,1288.12
2019-04-14T07:33:50.208Z,1288.12
2019-04-14T07:34:50.236Z,1299.38
2019-04-14T07:35:50.192Z,1276.88
2019-04-14T07:36:50.162Z,1271.25
2019-04-14T07:37:50.202Z,1265.62
2019-04-14T07:38:50.140Z,1271.25
2019-04-14T07:39:50.132Z,1265.62
2019-04-14T07:40:50.110Z,1271.25
2019-04-14T07:41:50.092Z,1260.00
2019-04-14T07:42:50.127Z,1243.12
2019-04-14T07:43:50.073Z,1248.75
2019-04-14T07:44:50.067Z,1226.25
2019-04-14T07:45:50.053Z,1203.75
2019-04-14T07:46:50.068Z,1299.38
2019-04-14T07:47:50.097Z,1383.75
2019-04-14T07:48:50.034Z,1406.25
2019-04-14T07:49:50.020Z,1423.12
2019-04-14T07:50:50.011Z,1428.75
2019-04-14T07:51:49.994Z,1378.12
2019-04-14T07:52:49.983Z,1440.00
2019-04-14T07:53:50.025Z,1501.88
2019-04-14T07:54:49.964Z,1518.75
2019-04-14T07:55:49.973Z,1546.88
2019-04-14T07:56:49.954Z,1507.50
2019-04-14T07:57:49.933Z,1479.38
2019-04-14T07:58:49.997Z,1535.62
2019-04-14T07:59:49.913Z,1608.75
2019-04-14T08:00:49.904Z,1648.12
2019-04-14T08:01:49.885Z,1642.50
2019-04-14T08:02:49.873Z,1631.25
2019-04-14T08:03:49.864Z,1625.62
2019-04-14T08:04:49.919Z,1659.38
2019-04-14T08:05:49.865Z,1715.62
2019-04-14T08:06:49.834Z,1721.25
2019-04-14T08:07:49.824Z,1755.00
2019-04-14T08:08:49.814Z,1760.62
2019-04-14T08:09:49.854Z,1760.62
2019-04-14T08:10:49.808Z,1771.88
2019-04-14T08:11:49.784Z,1805.62
2019-04-14T08:12:49.764Z,1822.50
2019-04-14T08:13:49.755Z,1822.50
2019-04-14T08:14:49.774Z,1805.62
2019-04-14T08:15:49.735Z,1828.12
2019-04-14T08:16:49.738Z,1783.12
2019-04-14T08:17:49.718Z,1822.50
2019-04-14T08:18:49.703Z,1845.00
2019-04-14T08:19:49.739Z,1901.25
2019-04-14T08:20:49.675Z,1912.50
2019-04-14T08:21:49.726Z,1935.00
2019-04-14T08:22:49.669Z,1940.62
2019-04-14T08:23:49.646Z,1901.25
2019-04-14T08:24:49.636Z,1884.38
2019-04-14T08:25:49.686Z,1946.25
2019-04-14T08:26:49.628Z,1985.62
2019-04-14T08:27:49.607Z,2013.75
2019-04-14T08:28:49.596Z,2058.75
2019-04-14T08:29:49.578Z,2075.62
2019-04-14T08:30:49.606Z,2036.25
2019-04-14T08:31:49.557Z,2036.25
2019-04-14T08:32:49.554Z,2081.25
2019-04-14T08:33:49.536Z,2109.38
2019-04-14T08:34:49.536Z,2041.88
2019-04-14T08:35:49.526Z,2103.75
2019-04-14T08:36:49.566Z,2154.38
2019-04-14T08:37:49.513Z,2137.50
2019-04-14T08:38:49.497Z,2126.25
2019-04-14T08:39:49.487Z,2143.12
2019-04-14T08:40:49.477Z,2137.50
2019-04-14T08:41:49.478Z,2250.00
2019-04-14T08:42:49.448Z,2148.75
2019-04-14T08:43:49.453Z,1659.38
2019-04-14T08:44:49.441Z,1569.38
2019-04-14T08:45:49.409Z,1991.25
2019-04-14T08:46:49.458Z,2334.38
2019-04-14T08:47:49.392Z,2334.38
2019-04-14T08:48:49.402Z,2238.75
2019-04-14T08:49:49.369Z,2210.62
2019-04-14T08:50:49.371Z,2283.75
2019-04-14T08:51:49.362Z,2295.00
2019-04-14T08:52:49.393Z,2272.50
2019-04-14T08:53:49.380Z,2351.25
2019-04-14T08:54:49.327Z,2345.62
2019-04-14T08:55:49.299Z,2221.88
2019-04-14T08:56:49.298Z,2143.12
2019-04-14T08:57:49.290Z,2300.62
2019-04-14T08:58:49.330Z,2323.12
2019-04-14T08:59:49.274Z,2362.50
2019-04-14T09:00:49.284Z,2385.00
2019-04-14T09:01:49.248Z,2385.00
2019-04-14T09:02:49.236Z,2424.38
2019-04-14T09:03:49.275Z,2430.00
2019-04-14T09:04:49.211Z,2401.88
2019-04-14T09:05:49.191Z,2340.00
2019-04-14T09:06:49.190Z,2385.00
2019-04-14T09:07:49.172Z,2469.38
2019-04-14T09:08:49.202Z,2514.38
2019-04-14T09:09:49.152Z,2497.50
2019-04-14T09:10:49.132Z,2469.38
2019-04-14T09:11:49.122Z,2446.88
2019-04-14T09:12:49.127Z,2424.38
2019-04-14T09:13:49.112Z,2520.00
2019-04-14T09:14:56.705Z,2536.88
2019-04-14T09:15:50.092Z,2587.50
2019-04-14T09:16:49.094Z,2604.38
2019-04-14T09:17:49.090Z,2559.38
2019-04-14T09:18:49.116Z,2548.12
2019-04-14T09:19:49.103Z,2430.00
2019-04-14T09:20:52.505Z,2446.88
2019-04-14T09:21:49.084Z,2469.38
2019-04-14T09:22:49.024Z,2356.88
2019-04-14T09:23:49.018Z,2272.50
2019-04-14T09:24:49.015Z,2227.50
2019-04-14T09:25:49.047Z,2165.62
2019-04-14T09:26:48.965Z,2278.12
2019-04-14T09:27:48.955Z,2272.50
2019-04-14T09:28:48.945Z,2278.12
2019-04-14T09:29:48.945Z,2283.75
2019-04-14T09:30:48.939Z,2221.88
2019-04-14T09:31:48.973Z,2311.88
2019-04-14T09:32:48.966Z,2407.50
2019-04-14T09:33:48.887Z,2390.62
2019-04-14T09:34:48.898Z,2210.62
2019-04-14T09:35:48.878Z,2126.25
2019-04-14T09:36:48.926Z,2221.88
2019-04-14T09:37:48.870Z,2413.12
2019-04-14T09:38:48.847Z,2486.25
2019-04-14T09:39:48.840Z,2486.25
2019-04-14T09:40:48.818Z,2553.75
2019-04-14T09:41:48.807Z,2621.25
2019-04-14T09:42:48.862Z,2745.00
2019-04-14T09:43:48.800Z,2806.88
2019-04-14T09:44:48.776Z,2750.62
2019-04-14T09:45:48.768Z,2750.62
2019-04-14T09:46:48.748Z,2778.75
2019-04-14T09:47:48.768Z,2829.38
2019-04-14T09:48:48.733Z,2941.88
2019-04-14T09:49:48.709Z,2863.12
2019-04-14T09:50:48.710Z,2874.38
2019-04-14T09:51:48.690Z,2913.75
2019-04-14T09:52:48.739Z,2925.00
2019-04-14T09:53:48.668Z,3037.50
2019-04-14T09:54:48.661Z,2975.62
2019-04-14T09:55:48.651Z,3048.75
2019-04-14T09:56:48.632Z,3105.00
2019-04-14T09:57:48.684Z,2970.00
2019-04-14T09:58:48.632Z,2581.88
2019-04-14T09:59:48.610Z,2351.25
2019-04-14T10:00:48.616Z,2790.00
2019-04-14T10:01:48.591Z,3031.88
2019-04-14T10:02:48.586Z,3037.50
2019-04-14T10:03:48.612Z,3127.50
2019-04-14T10:04:48.552Z,3043.12
2019-04-14T10:05:48.544Z,2992.50
2019-04-14T10:06:48.524Z,3020.62
2019-04-14T10:07:48.572Z,3015.00
2019-04-14T10:08:48.506Z,3127.50
2019-04-14T10:09:48.553Z,3234.38
2019-04-14T10:10:48.494Z,2953.12
2019-04-14T10:11:51.221Z,2795.62
2019-04-14T10:12:49.463Z,2936.25
2019-04-14T10:13:48.517Z,3026.25
2019-04-14T10:14:48.445Z,3093.75
2019-04-14T10:15:48.435Z,3003.75
2019-04-14T10:16:48.425Z,3009.38
2019-04-14T10:17:48.419Z,3217.50
2019-04-14T10:18:48.425Z,3155.62
2019-04-14T10:19:48.395Z,3138.75
2019-04-14T10:20:48.435Z,3262.50
2019-04-14T10:21:48.366Z,3313.12
2019-04-14T10:22:48.369Z,3195.00
2019-04-14T10:23:48.359Z,2998.12
2019-04-14T10:24:48.357Z,3223.12
2019-04-14T10:25:48.327Z,3189.38
2019-04-14T10:26:48.331Z,3150.00
2019-04-14T10:27:48.318Z,3256.88
2019-04-14T10:28:50.672Z,3273.75
2019-04-14T10:29:48.282Z,3335.62
2019-04-14T10:30:48.327Z,3273.75
2019-04-14T10:31:48.268Z,3133.12
2019-04-14T10:32:48.278Z,3318.75
2019-04-14T10:33:48.319Z,3155.62
2019-04-14T10:34:48.233Z,3256.88
2019-04-14T10:35:48.220Z,3313.12
2019-04-14T10:36:48.222Z,3318.75
2019-04-14T10:37:48.199Z,3076.88
2019-04-14T10:38:48.180Z,3391.88
2019-04-14T10:39:48.202Z,1378.12
2019-04-14T10:40:48.171Z,3065.62
2019-04-14T10:41:48.164Z,3178.12
2019-04-14T10:42:48.155Z,3313.12
2019-04-14T10:43:48.131Z,3262.50
2019-04-14T10:44:48.134Z,3358.12
2019-04-14T10:45:48.176Z,3341.25
2019-04-14T10:46:48.102Z,2975.62
2019-04-14T10:47:48.092Z,3105.00
2019-04-14T10:48:48.083Z,3420.00
2019-04-14T10:49:48.136Z,3318.75
2019-04-14T10:50:48.113Z,3493.12
2019-04-14T10:51:48.054Z,3555.00
2019-04-14T10:52:48.043Z,3802.50
2019-04-14T10:53:48.024Z,3825.00
2019-04-14T10:54:48.028Z,3740.62
2019-04-14T10:55:48.065Z,3763.12
2019-04-14T10:56:48.005Z,3819.38
2019-04-14T10:57:47.995Z,3774.38
2019-04-14T10:58:47.986Z,3678.75
2019-04-14T10:59:47.967Z,3375.00
2019-04-14T11:00:48.006Z,3307.50
2019-04-14T11:01:47.945Z,3645.00
2019-04-14T11:02:47.928Z,3622.50
2019-04-14T11:03:47.938Z,3318.75
2019-04-14T11:04:47.907Z,2992.50
2019-04-14T11:05:47.978Z,3065.62
2019-04-14T11:06:47.887Z,2947.50
2019-04-14T11:07:48.927Z,3200.62
2019-04-14T11:08:47.888Z,3459.38
2019-04-14T11:09:47.848Z,2643.75
2019-04-14T11:10:47.873Z,1665.00
2019-04-14T11:11:47.886Z,2632.50
2019-04-14T11:12:47.840Z,3532.50
2019-04-14T11:13:47.808Z,1884.38
2019-04-14T11:14:47.798Z,1828.12
2019-04-14T11:15:47.789Z,1822.50
2019-04-14T11:16:47.842Z,1485.00
2019-04-14T11:17:47.769Z,2098.12
2019-04-14T11:18:47.761Z,1203.75
2019-04-14T11:19:47.754Z,1141.88
2019-04-14T11:20:47.743Z,1068.75
2019-04-14T11:21:47.780Z,1136.25
2019-04-14T11:22:47.710Z,1192.50
2019-04-14T11:23:47.761Z,1575.00
2019-04-14T11:24:47.702Z,1715.62
2019-04-14T11:25:47.690Z,2238.75
2019-04-14T11:26:47.686Z,1974.38
2019-04-14T11:27:47.664Z,1963.12
2019-04-14T11:28:47.710Z,1946.25
2019-04-14T11:29:47.703Z,1856.25
2019-04-14T11:30:47.662Z,1490.62
2019-04-14T11:31:47.627Z,1681.88
2019-04-14T11:32:47.613Z,1732.50
2019-04-14T11:33:47.652Z,1743.75
2019-04-14T11:34:47.616Z,1293.75
2019-04-14T11:35:47.579Z,1563.75
2019-04-14T11:36:47.577Z,1333.12
2019-04-14T11:37:47.636Z,1248.75
2019-04-14T11:38:47.558Z,1350.00
2019-04-14T11:39:47.558Z,1546.88
2019-04-14T11:40:47.527Z,1800.00
2019-04-14T11:41:47.529Z,1755.00
2019-04-14T11:42:52.564Z,1788.75
2019-04-14T11:43:48.544Z,1850.62
2019-04-14T11:44:47.488Z,1636.88
2019-04-14T11:45:47.468Z,1687.50
2019-04-14T11:46:47.486Z,1524.38
2019-04-14T11:47:47.459Z,1271.25
2019-04-14T11:48:47.506Z,1113.75
2019-04-14T11:49:47.484Z,1108.12
2019-04-14T11:50:47.416Z,1153.12
2019-04-14T11:51:55.117Z,1181.25
2019-04-14T11:52:48.430Z,1260.00
2019-04-14T11:53:47.375Z,1400.62
2019-04-14T11:54:47.369Z,1552.50
2019-04-14T11:55:47.426Z,1485.00
2019-04-14T11:56:47.346Z,1591.88
2019-04-14T11:57:47.359Z,1327.50
2019-04-14T11:58:47.394Z,1361.25
2019-04-14T11:59:47.324Z,1012.50
2019-04-14T12:00:47.317Z,826.88
2019-04-14T12:01:47.299Z,720.00
2019-04-14T12:02:47.360Z,641.25
2019-04-14T12:03:47.278Z,613.12
2019-04-14T12:04:47.280Z,703.12
2019-04-14T12:05:47.267Z,843.75
2019-04-14T12:06:47.237Z,1012.50
2019-04-14T12:07:47.241Z,1231.88
2019-04-14T12:08:47.277Z,1260.00
2019-04-14T12:09:47.273Z,1085.62
2019-04-14T12:10:47.268Z,1130.62
2019-04-14T12:11:54.245Z,1546.88
2019-04-14T12:12:47.178Z,1501.88
2019-04-14T12:13:47.254Z,1035.00
2019-04-14T12:14:47.186Z,883.12
2019-04-14T12:15:47.135Z,765.00
2019-04-14T12:16:47.210Z,675.00
2019-04-14T12:17:47.120Z,630.00
2019-04-14T12:18:47.148Z,618.75
2019-04-14T12:19:47.094Z,630.00
2019-04-14T12:20:47.085Z,601.88
2019-04-14T12:21:47.140Z,579.38
2019-04-14T12:22:47.117Z,562.50
2019-04-14T12:23:47.137Z,562.50
2019-04-14T12:24:47.047Z,562.50
2019-04-14T12:25:47.040Z,556.88
2019-04-14T12:26:47.030Z,556.88
2019-04-14T12:27:47.012Z,556.88
2019-04-14T12:28:47.214Z,573.75
2019-04-14T12:29:47.939Z,601.88
2019-04-14T12:30:47.016Z,663.75
2019-04-14T12:31:47.038Z,742.50
2019-04-14T12:32:46.968Z,843.75
2019-04-14T12:33:46.944Z,978.75
2019-04-14T12:34:46.947Z,1108.12
2019-04-14T12:35:46.918Z,1192.50
2019-04-14T12:36:46.968Z,1248.75
2019-04-14T12:37:46.912Z,1355.62
2019-04-14T12:38:46.929Z,1310.62
2019-04-14T12:39:46.879Z,1395.00
2019-04-14T12:40:47.336Z,1451.25
2019-04-14T12:41:46.859Z,1485.00
2019-04-14T12:42:46.892Z,1563.75
2019-04-14T12:43:46.852Z,1417.50
2019-04-14T12:44:46.828Z,1192.50
2019-04-14T12:45:46.821Z,950.62
2019-04-14T12:46:46.853Z,832.50
2019-04-14T12:47:46.818Z,765.00
2019-04-14T12:48:46.839Z,720.00
2019-04-14T12:49:46.788Z,675.00
2019-04-14T12:50:46.760Z,618.75
2019-04-14T12:51:46.760Z,568.12
2019-04-14T12:52:46.743Z,528.75
2019-04-14T12:53:46.784Z,495.00
2019-04-14T12:54:46.784Z,495.00
2019-04-14T12:55:46.710Z,511.88
2019-04-14T12:56:46.731Z,568.12